sensor_id;sensor_type;location;lat;lon;timestamp;pressure;altitude;pressure_sealevel;temperature;humidity
804;BME280;25687;49.976;8.240;2023-12-20T00:01:46;100117.03;;;4.11;100.00
804;BME280;25687;49.976;8.240;2023-12-20T00:04:11;100111.97;;;4.09;100.00
804;BME280;25687;49.976;8.240;2023-12-20T00:06:36;100106.84;;;4.11;100.00
804;BME280;25687;49.976;8.240;2023-12-20T00:09:02;100104.31;;;4.09;100.00
804;BME280;25687;49.976;8.240;2023-12-20T00:11:27;100110.91;;;4.16;100.00
804;BME280;25687;49.976;8.240;2023-12-20T00:13:53;100106.88;;;4.09;100.00
804;BME280;25687;49.976;8.240;2023-12-20T00:16:18;100098.56;;;4.02;100.00
804;BME280;25687;49.976;8.240;2023-12-20T00:18:43;100089.97;;;4.07;100.00
804;BME280;25687;49.976;8.240;2023-12-20T00:21:09;100090.06;;;4.03;100.00
804;BME280;25687;49.976;8.240;2023-12-20T00:23:34;100094.88;;;4.14;100.00
804;BME280;25687;49.976;8.240;2023-12-20T00:25:59;100087.25;;;4.13;100.00
804;BME280;25687;49.976;8.240;2023-12-20T00:28:25;100087.56;;;4.02;100.00
804;BME280;25687;49.976;8.240;2023-12-20T00:30:50;100096.69;;;4.09;100.00
804;BME280;25687;49.976;8.240;2023-12-20T00:33:15;100090.06;;;4.03;100.00
804;BME280;25687;49.976;8.240;2023-12-20T00:35:40;100089.19;;;4.04;100.00
804;BME280;25687;49.976;8.240;2023-12-20T00:38:06;100090.66;;;4.13;100.00
804;BME280;25687;49.976;8.240;2023-12-20T00:40:32;100085.28;;;4.23;100.00
804;BME280;25687;49.976;8.240;2023-12-20T00:42:58;100087.81;;;4.23;100.00
804;BME280;25687;49.976;8.240;2023-12-20T00:45:23;100083.47;;;4.26;100.00
804;BME280;25687;49.976;8.240;2023-12-20T00:47:48;100072.25;;;4.33;100.00
804;BME280;25687;49.976;8.240;2023-12-20T00:50:14;100078.34;;;4.28;100.00
804;BME280;25687;49.976;8.240;2023-12-20T00:52:39;100071.56;;;4.28;100.00
804;BME280;25687;49.976;8.240;2023-12-20T00:55:05;100064.56;;;4.35;100.00
804;BME280;25687;49.976;8.240;2023-12-20T00:57:30;100065.66;;;4.26;100.00
804;BME280;25687;49.976;8.240;2023-12-20T00:59:56;100064.25;;;4.16;100.00
804;BME280;25687;49.976;8.240;2023-12-20T01:02:21;100064.16;;;4.19;100.00
804;BME280;25687;49.976;8.240;2023-12-20T01:04:46;100058.91;;;4.25;100.00
804;BME280;25687;49.976;8.240;2023-12-20T01:07:12;100052.13;;;4.24;100.00
804;BME280;25687;49.976;8.240;2023-12-20T01:09:37;100058.19;;;4.20;100.00
804;BME280;25687;49.976;8.240;2023-12-20T01:12:03;100058.06;;;4.25;100.00
804;BME280;25687;49.976;8.240;2023-12-20T01:14:28;100048.13;;;4.15;100.00
804;BME280;25687;49.976;8.240;2023-12-20T01:16:53;100049.59;;;4.24;100.00
804;BME280;25687;49.976;8.240;2023-12-20T01:19:18;100057.94;;;4.29;100.00
804;BME280;25687;49.976;8.240;2023-12-20T01:21:44;100054.59;;;4.27;100.00
804;BME280;25687;49.976;8.240;2023-12-20T01:24:09;100053.81;;;4.25;100.00
804;BME280;25687;49.976;8.240;2023-12-20T01:26:34;100052.09;;;4.26;100.00
804;BME280;25687;49.976;8.240;2023-12-20T01:28:59;100058.06;;;4.25;100.00
804;BME280;25687;49.976;8.240;2023-12-20T01:31:26;100052.84;;;4.29;100.00
804;BME280;25687;49.976;8.240;2023-12-20T01:33:52;100052.13;;;4.24;100.00
804;BME280;25687;49.976;8.240;2023-12-20T01:36:17;100051.94;;;4.30;100.00
804;BME280;25687;49.976;8.240;2023-12-20T01:38:43;100051.00;;;4.34;100.00
804;BME280;25687;49.976;8.240;2023-12-20T01:41:08;100051.75;;;4.38;100.00
804;BME280;25687;49.976;8.240;2023-12-20T01:43:33;100060.16;;;4.40;100.00
804;BME280;25687;49.976;8.240;2023-12-20T01:45:59;100069.56;;;4.38;100.00
804;BME280;25687;49.976;8.240;2023-12-20T01:48:25;100074.44;;;4.46;100.00
804;BME280;25687;49.976;8.240;2023-12-20T01:50:51;100083.81;;;4.44;100.00
804;BME280;25687;49.976;8.240;2023-12-20T01:53:18;100075.06;;;4.52;100.00
804;BME280;25687;49.976;8.240;2023-12-20T01:55:44;100066.69;;;4.49;100.00
804;BME280;25687;49.976;8.240;2023-12-20T01:58:11;100077.41;;;4.60;100.00
804;BME280;25687;49.976;8.240;2023-12-20T02:00:37;100068.09;;;4.59;100.00
804;BME280;25687;49.976;8.240;2023-12-20T02:03:03;100073.25;;;4.58;100.00
804;BME280;25687;49.976;8.240;2023-12-20T02:05:34;100076.63;;;4.58;100.00
804;BME280;25687;49.976;8.240;2023-12-20T02:08:00;100078.09;;;4.65;100.00
804;BME280;25687;49.976;8.240;2023-12-20T02:10:26;100064.69;;;4.59;100.00
804;BME280;25687;49.976;8.240;2023-12-20T02:12:51;100073.31;;;4.55;100.00
804;BME280;25687;49.976;8.240;2023-12-20T02:15:17;100070.50;;;4.64;100.00
804;BME280;25687;49.976;8.240;2023-12-20T02:17:43;100066.19;;;4.66;100.00
804;BME280;25687;49.976;8.240;2023-12-20T02:20:09;100059.41;;;4.65;100.00
804;BME280;25687;49.976;8.240;2023-12-20T02:22:35;100048.47;;;4.61;100.00
804;BME280;25687;49.976;8.240;2023-12-20T02:25:00;100054.50;;;4.59;100.00
804;BME280;25687;49.976;8.240;2023-12-20T02:27:25;100058.59;;;4.64;100.00
804;BME280;25687;49.976;8.240;2023-12-20T02:29:51;100060.22;;;4.67;100.00
804;BME280;25687;49.976;8.240;2023-12-20T02:32:18;100060.09;;;4.70;100.00
804;BME280;25687;49.976;8.240;2023-12-20T02:34:44;100057.47;;;4.73;100.00
804;BME280;25687;49.976;8.240;2023-12-20T02:37:09;100066.94;;;4.69;100.00
804;BME280;25687;49.976;8.240;2023-12-20T02:39:34;100066.78;;;4.74;100.00
804;BME280;25687;49.976;8.240;2023-12-20T02:41:59;100071.00;;;4.75;100.00
804;BME280;25687;49.976;8.240;2023-12-20T02:44:25;100059.22;;;4.73;100.00
804;BME280;25687;49.976;8.240;2023-12-20T02:46:50;100063.38;;;4.75;100.00
804;BME280;25687;49.976;8.240;2023-12-20T02:49:15;100064.06;;;4.80;100.00
804;BME280;25687;49.976;8.240;2023-12-20T02:51:40;100069.97;;;4.81;100.00
804;BME280;25687;49.976;8.240;2023-12-20T02:54:06;100072.66;;;4.76;100.00
804;BME280;25687;49.976;8.240;2023-12-20T02:56:34;100074.13;;;4.83;100.00
804;BME280;25687;49.976;8.240;2023-12-20T02:59:00;100071.41;;;4.90;100.00
804;BME280;25687;49.976;8.240;2023-12-20T03:01:26;100063.13;;;4.83;100.00
804;BME280;25687;49.976;8.240;2023-12-20T03:03:51;100063.75;;;4.90;100.00
804;BME280;25687;49.976;8.240;2023-12-20T03:06:17;100063.13;;;4.83;100.00
804;BME280;25687;49.976;8.240;2023-12-20T03:08:43;100052.72;;;4.89;100.00
804;BME280;25687;49.976;8.240;2023-12-20T03:11:08;100055.97;;;4.94;100.00
804;BME280;25687;49.976;8.240;2023-12-20T03:13:34;100057.69;;;4.94;100.00
804;BME280;25687;49.976;8.240;2023-12-20T03:15:59;100068.81;;;4.91;100.00
804;BME280;25687;49.976;8.240;2023-12-20T03:18:24;100073.63;;;5.00;100.00
804;BME280;25687;49.976;8.240;2023-12-20T03:20:50;100071.13;;;4.99;100.00
804;BME280;25687;49.976;8.240;2023-12-20T03:23:16;100078.16;;;4.91;100.00
804;BME280;25687;49.976;8.240;2023-12-20T03:25:41;100090.22;;;4.85;100.00
804;BME280;25687;49.976;8.240;2023-12-20T03:28:06;100084.13;;;4.91;100.00
804;BME280;25687;49.976;8.240;2023-12-20T03:30:31;100090.84;;;4.92;100.00
804;BME280;25687;49.976;8.240;2023-12-20T03:32:57;100088.50;;;4.86;100.00
804;BME280;25687;49.976;8.240;2023-12-20T03:35:22;100096.00;;;4.91;100.00
804;BME280;25687;49.976;8.240;2023-12-20T03:37:47;100096.19;;;4.84;100.00
804;BME280;25687;49.976;8.240;2023-12-20T03:40:12;100102.91;;;4.87;100.00
804;BME280;25687;49.976;8.240;2023-12-20T03:42:38;100105.72;;;4.79;100.00
804;BME280;25687;49.976;8.240;2023-12-20T03:45:03;100102.22;;;4.82;100.00
804;BME280;25687;49.976;8.240;2023-12-20T03:47:28;100102.66;;;4.96;100.00
804;BME280;25687;49.976;8.240;2023-12-20T03:49:54;100114.72;;;4.90;100.00
804;BME280;25687;49.976;8.240;2023-12-20T03:52:19;100102.72;;;4.93;100.00
804;BME280;25687;49.976;8.240;2023-12-20T03:54:44;100109.19;;;5.05;100.00
804;BME280;25687;49.976;8.240;2023-12-20T03:57:09;100116.22;;;4.97;100.00
804;BME280;25687;49.976;8.240;2023-12-20T03:59:36;100107.31;;;5.10;100.00
804;BME280;25687;49.976;8.240;2023-12-20T04:02:01;100106.31;;;5.14;100.00
804;BME280;25687;49.976;8.240;2023-12-20T04:04:27;100103.63;;;5.19;100.00
804;BME280;25687;49.976;8.240;2023-12-20T04:06:52;100104.22;;;5.27;100.00
804;BME280;25687;49.976;8.240;2023-12-20T04:09:17;100107.25;;;5.12;100.00
804;BME280;25687;49.976;8.240;2023-12-20T04:11:42;100116.69;;;5.10;100.00
804;BME280;25687;49.976;8.240;2023-12-20T04:14:08;100108.19;;;5.36;100.00
804;BME280;25687;49.976;8.240;2023-12-20T04:16:34;100115.63;;;5.42;100.00
804;BME280;25687;49.976;8.240;2023-12-20T04:19:00;100122.03;;;5.29;100.00
804;BME280;25687;49.976;8.240;2023-12-20T04:21:26;100124.16;;;5.14;100.00
804;BME280;25687;49.976;8.240;2023-12-20T04:23:51;100127.03;;;5.05;100.00
804;BME280;25687;49.976;8.240;2023-12-20T04:26:16;100138.09;;;4.76;100.00
804;BME280;25687;49.976;8.240;2023-12-20T04:28:41;100138.28;;;4.69;100.00
804;BME280;25687;49.976;8.240;2023-12-20T04:31:07;100145.28;;;4.63;100.00
804;BME280;25687;49.976;8.240;2023-12-20T04:33:32;100148.19;;;4.50;100.00
804;BME280;25687;49.976;8.240;2023-12-20T04:35:58;100151.81;;;4.42;100.00
804;BME280;25687;49.976;8.240;2023-12-20T04:38:23;100156.34;;;4.30;100.00
804;BME280;25687;49.976;8.240;2023-12-20T04:40:48;100163.41;;;4.22;100.00
804;BME280;25687;49.976;8.240;2023-12-20T04:43:14;100169.19;;;4.27;100.00
804;BME280;25687;49.976;8.240;2023-12-20T04:45:39;100156.69;;;4.18;100.00
804;BME280;25687;49.976;8.240;2023-12-20T04:48:05;100158.47;;;4.16;100.00
804;BME280;25687;49.976;8.240;2023-12-20T04:50:30;100176.25;;;4.17;100.00
804;BME280;25687;49.976;8.240;2023-12-20T04:52:55;100173.75;;;4.16;100.00
804;BME280;25687;49.976;8.240;2023-12-20T04:55:21;100186.44;;;4.17;100.00
804;BME280;25687;49.976;8.240;2023-12-20T04:57:46;100184.69;;;4.19;100.00
804;BME280;25687;49.976;8.240;2023-12-20T05:00:12;100180.75;;;4.08;100.00
804;BME280;25687;49.976;8.240;2023-12-20T05:02:37;100200.03;;;4.16;100.00
804;BME280;25687;49.976;8.240;2023-12-20T05:05:02;100197.75;;;4.07;100.00
804;BME280;25687;49.976;8.240;2023-12-20T05:07:28;100202.13;;;4.02;100.00
804;BME280;25687;49.976;8.240;2023-12-20T05:09:53;100186.25;;;3.91;100.00
804;BME280;25687;49.976;8.240;2023-12-20T05:12:18;100191.13;;;4.00;100.00
804;BME280;25687;49.976;8.240;2023-12-20T05:14:44;100192.25;;;3.88;100.00
804;BME280;25687;49.976;8.240;2023-12-20T05:17:09;100189.91;;;3.80;100.00
804;BME280;25687;49.976;8.240;2023-12-20T05:19:34;100182.41;;;3.76;100.00
804;BME280;25687;49.976;8.240;2023-12-20T05:22:01;100180.59;;;3.81;100.00
804;BME280;25687;49.976;8.240;2023-12-20T05:24:26;100183.00;;;3.85;100.00
804;BME280;25687;49.976;8.240;2023-12-20T05:26:52;100190.72;;;3.82;100.00
804;BME280;25687;49.976;8.240;2023-12-20T05:29:17;100192.09;;;3.96;100.00
804;BME280;25687;49.976;8.240;2023-12-20T05:31:42;100185.88;;;4.06;100.00
804;BME280;25687;49.976;8.240;2023-12-20T05:34:08;100191.53;;;4.17;100.00
804;BME280;25687;49.976;8.240;2023-12-20T05:36:33;100193.06;;;4.23;100.00
804;BME280;25687;49.976;8.240;2023-12-20T05:38:58;100189.22;;;4.40;100.00
804;BME280;25687;49.976;8.240;2023-12-20T05:41:23;100176.31;;;4.46;100.00
804;BME280;25687;49.976;8.240;2023-12-20T05:43:49;100176.50;;;4.40;100.00
804;BME280;25687;49.976;8.240;2023-12-20T05:46:14;100177.59;;;4.31;100.00
804;BME280;25687;49.976;8.240;2023-12-20T05:48:39;100174.19;;;4.30;100.00
804;BME280;25687;49.976;8.240;2023-12-20T05:51:04;100180.41;;;4.20;100.00
804;BME280;25687;49.976;8.240;2023-12-20T05:53:30;100184.59;;;4.23;100.00
804;BME280;25687;49.976;8.240;2023-12-20T05:55:55;100195.09;;;4.10;100.00
804;BME280;25687;49.976;8.240;2023-12-20T05:58:20;100188.59;;;4.00;100.00
804;BME280;25687;49.976;8.240;2023-12-20T06:00:46;100191.09;;;4.01;100.00
804;BME280;25687;49.976;8.240;2023-12-20T06:03:11;100193.00;;;3.93;100.00
804;BME280;25687;49.976;8.240;2023-12-20T06:05:36;100199.94;;;3.86;100.00
804;BME280;25687;49.976;8.240;2023-12-20T06:08:01;100202.50;;;3.86;100.00
804;BME280;25687;49.976;8.240;2023-12-20T06:10:28;100207.94;;;3.72;100.00
804;BME280;25687;49.976;8.240;2023-12-20T06:12:54;100217.38;;;3.67;100.00
804;BME280;25687;49.976;8.240;2023-12-20T06:15:21;100217.50;;;3.63;100.00
804;BME280;25687;49.976;8.240;2023-12-20T06:17:46;100225.38;;;3.52;100.00
804;BME280;25687;49.976;8.240;2023-12-20T06:20:12;100227.13;;;3.48;100.00
804;BME280;25687;49.976;8.240;2023-12-20T06:22:38;100235.63;;;3.47;100.00
804;BME280;25687;49.976;8.240;2023-12-20T06:25:04;100231.50;;;3.43;100.00
804;BME280;25687;49.976;8.240;2023-12-20T06:27:30;100234.91;;;3.44;100.00
804;BME280;25687;49.976;8.240;2023-12-20T06:29:57;100240.94;;;3.38;100.00
804;BME280;25687;49.976;8.240;2023-12-20T06:32:22;100236.78;;;3.35;100.00
804;BME280;25687;49.976;8.240;2023-12-20T06:34:48;100232.50;;;3.37;100.00
804;BME280;25687;49.976;8.240;2023-12-20T06:37:14;100231.75;;;3.32;100.00
804;BME280;25687;49.976;8.240;2023-12-20T06:39:40;100210.66;;;3.29;100.00
804;BME280;25687;49.976;8.240;2023-12-20T06:42:05;100214.94;;;3.27;100.00
804;BME280;25687;49.976;8.240;2023-12-20T06:44:30;100226.91;;;3.21;100.00
804;BME280;25687;49.976;8.240;2023-12-20T06:46:56;100226.91;;;3.21;100.00
804;BME280;25687;49.976;8.240;2023-12-20T06:49:22;100225.28;;;3.17;100.00
804;BME280;25687;49.976;8.240;2023-12-20T06:51:47;100228.84;;;3.10;100.00
804;BME280;25687;49.976;8.240;2023-12-20T06:54:12;100222.41;;;2.94;100.00
804;BME280;25687;49.976;8.240;2023-12-20T06:56:38;100219.69;;;3.01;100.00
804;BME280;25687;49.976;8.240;2023-12-20T06:59:03;100215.44;;;3.03;100.00
804;BME280;25687;49.976;8.240;2023-12-20T07:01:28;100235.13;;;2.94;100.00
804;BME280;25687;49.976;8.240;2023-12-20T07:03:53;100237.78;;;2.87;100.00
804;BME280;25687;49.976;8.240;2023-12-20T07:06:18;100247.03;;;2.90;100.00
804;BME280;25687;49.976;8.240;2023-12-20T07:08:44;100245.19;;;2.98;100.00
804;BME280;25687;49.976;8.240;2023-12-20T07:11:09;100239.25;;;2.99;100.00
804;BME280;25687;49.976;8.240;2023-12-20T07:13:35;100234.69;;;3.14;100.00
804;BME280;25687;49.976;8.240;2023-12-20T07:16:00;100246.34;;;3.24;100.00
804;BME280;25687;49.976;8.240;2023-12-20T07:18:25;100237.63;;;3.34;100.00
804;BME280;25687;49.976;8.240;2023-12-20T07:20:50;100250.97;;;3.44;100.00
804;BME280;25687;49.976;8.240;2023-12-20T07:23:16;100258.38;;;3.53;100.00
804;BME280;25687;49.976;8.240;2023-12-20T07:25:41;100256.69;;;3.54;100.00
804;BME280;25687;49.976;8.240;2023-12-20T07:28:06;100261.69;;;3.57;100.00
804;BME280;25687;49.976;8.240;2023-12-20T07:30:32;100260.06;;;3.54;100.00
804;BME280;25687;49.976;8.240;2023-12-20T07:32:57;100262.59;;;3.54;100.00
804;BME280;25687;49.976;8.240;2023-12-20T07:35:25;100266.44;;;3.35;100.00
804;BME280;25687;49.976;8.240;2023-12-20T07:37:50;100276.38;;;3.46;100.00
804;BME280;25687;49.976;8.240;2023-12-20T07:40:15;100267.06;;;3.46;100.00
804;BME280;25687;49.976;8.240;2023-12-20T07:42:42;100267.91;;;3.45;100.00
804;BME280;25687;49.976;8.240;2023-12-20T07:45:07;100275.81;;;3.33;100.00
804;BME280;25687;49.976;8.240;2023-12-20T07:47:34;100267.97;;;3.42;100.00
804;BME280;25687;49.976;8.240;2023-12-20T07:49:59;100272.91;;;3.48;100.00
804;BME280;25687;49.976;8.240;2023-12-20T07:52:24;100277.59;;;3.67;100.00
804;BME280;25687;49.976;8.240;2023-12-20T07:54:51;100279.59;;;3.90;100.00
804;BME280;25687;49.976;8.240;2023-12-20T07:57:16;100272.69;;;3.95;100.00
804;BME280;25687;49.976;8.240;2023-12-20T07:59:41;100274.09;;;4.07;100.00
804;BME280;25687;49.976;8.240;2023-12-20T08:02:06;100272.63;;;3.98;100.00
804;BME280;25687;49.976;8.240;2023-12-20T08:04:32;100275.09;;;4.01;100.00
804;BME280;25687;49.976;8.240;2023-12-20T08:06:57;100272.13;;;4.18;100.00
804;BME280;25687;49.976;8.240;2023-12-20T08:09:23;100261.69;;;4.28;100.00
804;BME280;25687;49.976;8.240;2023-12-20T08:11:48;100274.84;;;4.45;100.00
804;BME280;25687;49.976;8.240;2023-12-20T08:14:14;100273.72;;;4.56;100.00
804;BME280;25687;49.976;8.240;2023-12-20T08:16:39;100275.88;;;4.69;100.00
804;BME280;25687;49.976;8.240;2023-12-20T08:19:04;100273.97;;;4.78;100.00
804;BME280;25687;49.976;8.240;2023-12-20T08:21:30;100279.34;;;4.67;100.00
804;BME280;25687;49.976;8.240;2023-12-20T08:23:55;100273.78;;;4.84;100.00
804;BME280;25687;49.976;8.240;2023-12-20T08:26:21;100271.28;;;4.82;100.00
804;BME280;25687;49.976;8.240;2023-12-20T08:28:48;100267.72;;;4.88;100.00
804;BME280;25687;49.976;8.240;2023-12-20T08:31:17;100277.69;;;4.96;100.00
804;BME280;25687;49.976;8.240;2023-12-20T08:33:47;100286.78;;;5.06;100.00
804;BME280;25687;49.976;8.240;2023-12-20T08:36:12;100284.81;;;5.16;100.00
804;BME280;25687;49.976;8.240;2023-12-20T08:38:38;100294.81;;;5.22;100.00
804;BME280;25687;49.976;8.240;2023-12-20T08:41:03;100290.63;;;5.20;100.00
804;BME280;25687;49.976;8.240;2023-12-20T08:43:36;100299.63;;;5.31;100.00
804;BME280;25687;49.976;8.240;2023-12-20T08:46:02;100293.72;;;5.31;100.00
804;BME280;25687;49.976;8.240;2023-12-20T08:48:28;100292.84;;;5.30;100.00
804;BME280;25687;49.976;8.240;2023-12-20T08:50:53;100299.47;;;5.38;100.00
804;BME280;25687;49.976;8.240;2023-12-20T08:53:19;100286.88;;;5.31;100.00
804;BME280;25687;49.976;8.240;2023-12-20T08:55:44;100286.13;;;5.28;100.00
804;BME280;25687;49.976;8.240;2023-12-20T08:58:09;100283.88;;;5.19;100.00
804;BME280;25687;49.976;8.240;2023-12-20T09:00:35;100292.28;;;5.22;100.00
804;BME280;25687;49.976;8.240;2023-12-20T09:03:03;100294.41;;;5.36;100.00
804;BME280;25687;49.976;8.240;2023-12-20T09:05:29;100290.13;;;5.65;100.00
804;BME280;25687;49.976;8.240;2023-12-20T09:07:54;100292.50;;;5.98;100.00
804;BME280;25687;49.976;8.240;2023-12-20T09:10:19;100288.41;;;5.92;100.00
804;BME280;25687;49.976;8.240;2023-12-20T09:12:51;100278.84;;;5.99;100.00
804;BME280;25687;49.976;8.240;2023-12-20T09:15:16;100283.94;;;6.01;100.00
804;BME280;25687;49.976;8.240;2023-12-20T09:17:41;100288.19;;;6.00;100.00
804;BME280;25687;49.976;8.240;2023-12-20T09:20:07;100287.50;;;6.22;100.00
804;BME280;25687;49.976;8.240;2023-12-20T09:22:33;100284.69;;;6.29;100.00
804;BME280;25687;49.976;8.240;2023-12-20T09:24:59;100292.28;;;6.31;100.00
804;BME280;25687;49.976;8.240;2023-12-20T09:27:24;100284.28;;;6.91;100.00
804;BME280;25687;49.976;8.240;2023-12-20T09:29:49;100290.81;;;7.22;100.00
804;BME280;25687;49.976;8.240;2023-12-20T09:32:15;100284.44;;;7.32;100.00
804;BME280;25687;49.976;8.240;2023-12-20T09:34:40;100275.44;;;8.09;100.00
804;BME280;25687;49.976;8.240;2023-12-20T09:37:06;100282.47;;;9.06;100.00
804;BME280;25687;49.976;8.240;2023-12-20T09:39:33;100277.94;;;9.66;100.00
804;BME280;25687;49.976;8.240;2023-12-20T09:42:04;100291.31;;;9.36;100.00
804;BME280;25687;49.976;8.240;2023-12-20T09:44:30;100291.41;;;8.97;100.00
804;BME280;25687;49.976;8.240;2023-12-20T09:46:57;100290.41;;;8.80;100.00
804;BME280;25687;49.976;8.240;2023-12-20T09:49:22;100287.94;;;8.17;100.00
804;BME280;25687;49.976;8.240;2023-12-20T09:51:50;100292.31;;;7.72;100.00
804;BME280;25687;49.976;8.240;2023-12-20T09:54:19;100297.00;;;7.38;100.00
804;BME280;25687;49.976;8.240;2023-12-20T09:56:45;100299.59;;;7.15;100.00
804;BME280;25687;49.976;8.240;2023-12-20T09:59:11;100286.63;;;6.95;100.00
804;BME280;25687;49.976;8.240;2023-12-20T10:01:38;100287.88;;;6.85;100.00
804;BME280;25687;49.976;8.240;2023-12-20T10:04:08;100291.53;;;6.78;100.00
804;BME280;25687;49.976;8.240;2023-12-20T10:06:43;100299.13;;;6.79;100.00
804;BME280;25687;49.976;8.240;2023-12-20T10:09:10;100293.94;;;7.06;100.00
804;BME280;25687;49.976;8.240;2023-12-20T10:11:36;100305.97;;;7.26;100.00
804;BME280;25687;49.976;8.240;2023-12-20T10:14:06;100301.88;;;7.22;100.00
804;BME280;25687;49.976;8.240;2023-12-20T10:16:32;100297.72;;;7.20;100.00
804;BME280;25687;49.976;8.240;2023-12-20T10:18:58;100296.47;;;7.06;100.00
804;BME280;25687;49.976;8.240;2023-12-20T10:21:24;100293.25;;;7.25;100.00
804;BME280;25687;49.976;8.240;2023-12-20T10:23:52;100285.69;;;7.22;100.00
804;BME280;25687;49.976;8.240;2023-12-20T10:26:25;100292.22;;;7.29;100.00
804;BME280;25687;49.976;8.240;2023-12-20T10:28:53;100275.19;;;7.28;100.00
804;BME280;25687;49.976;8.240;2023-12-20T10:31:34;100262.88;;;7.38;100.00
804;BME280;25687;49.976;8.240;2023-12-20T10:34:01;100264.38;;;7.21;100.00
804;BME280;25687;49.976;8.240;2023-12-20T10:36:28;100260.56;;;7.32;100.00
804;BME280;25687;49.976;8.240;2023-12-20T10:38:55;100257.19;;;7.31;100.00
804;BME280;25687;49.976;8.240;2023-12-20T10:41:31;100255.91;;;7.19;100.00
804;BME280;25687;49.976;8.240;2023-12-20T10:43:59;100250.16;;;7.36;100.00
804;BME280;25687;49.976;8.240;2023-12-20T10:46:26;100242.19;;;7.44;100.00
804;BME280;25687;49.976;8.240;2023-12-20T10:48:54;100228.22;;;7.31;100.00
804;BME280;25687;49.976;8.240;2023-12-20T10:51:20;100235.75;;;7.11;100.00
804;BME280;25687;49.976;8.240;2023-12-20T10:53:47;100235.41;;;6.75;100.00
804;BME280;25687;49.976;8.240;2023-12-20T10:56:16;100225.28;;;6.72;100.00
804;BME280;25687;49.976;8.240;2023-12-20T10:58:42;100227.53;;;6.79;100.00
804;BME280;25687;49.976;8.240;2023-12-20T11:01:15;100231.38;;;6.91;100.00
804;BME280;25687;49.976;8.240;2023-12-20T11:03:44;100234.22;;;7.07;100.00
804;BME280;25687;49.976;8.240;2023-12-20T11:06:39;100237.97;;;7.21;100.00
804;BME280;25687;49.976;8.240;2023-12-20T11:09:26;100241.28;;;7.67;100.00
804;BME280;25687;49.976;8.240;2023-12-20T11:12:13;100245.59;;;7.45;100.00
804;BME280;25687;49.976;8.240;2023-12-20T11:14:47;100236.63;;;7.77;100.00
804;BME280;25687;49.976;8.240;2023-12-20T11:17:14;100237.78;;;7.90;100.00
804;BME280;25687;49.976;8.240;2023-12-20T11:20:05;100223.50;;;7.85;100.00
804;BME280;25687;49.976;8.240;2023-12-20T11:22:32;100222.34;;;7.92;100.00
804;BME280;25687;49.976;8.240;2023-12-20T11:25:10;100220.78;;;7.67;100.00
804;BME280;25687;49.976;8.240;2023-12-20T11:27:36;100228.03;;;7.78;100.00
804;BME280;25687;49.976;8.240;2023-12-20T11:30:05;100241.63;;;7.80;100.00
804;BME280;25687;49.976;8.240;2023-12-20T11:32:36;100241.41;;;7.64;100.00
804;BME280;25687;49.976;8.240;2023-12-20T11:37:37;100246.75;;;7.14;100.00
804;BME280;25687;49.976;8.240;2023-12-20T11:40:06;100250.22;;;7.13;100.00
804;BME280;25687;49.976;8.240;2023-12-20T11:42:50;100245.47;;;7.03;100.00
804;BME280;25687;49.976;8.240;2023-12-20T11:45:21;100251.56;;;6.99;100.00
804;BME280;25687;49.976;8.240;2023-12-20T11:47:47;100257.84;;;6.90;100.00
804;BME280;25687;49.976;8.240;2023-12-20T11:50:19;100254.78;;;6.81;100.00
804;BME280;25687;49.976;8.240;2023-12-20T11:52:45;100246.41;;;6.77;100.00
804;BME280;25687;49.976;8.240;2023-12-20T11:55:10;100240.97;;;6.62;100.00
804;BME280;25687;49.976;8.240;2023-12-20T11:57:36;100226.38;;;6.65;100.00
804;BME280;25687;49.976;8.240;2023-12-20T12:00:03;100230.41;;;6.72;100.00
804;BME280;25687;49.976;8.240;2023-12-20T12:02:29;100222.34;;;6.83;100.00
804;BME280;25687;49.976;8.240;2023-12-20T12:04:54;100218.41;;;6.74;100.00
804;BME280;25687;49.976;8.240;2023-12-20T12:07:21;100210.22;;;6.88;100.00
804;BME280;25687;49.976;8.240;2023-12-20T12:09:47;100199.44;;;7.02;100.00
804;BME280;25687;49.976;8.240;2023-12-20T12:12:13;100192.91;;;7.17;100.00
804;BME280;25687;49.976;8.240;2023-12-20T12:14:38;100188.66;;;7.17;100.00
804;BME280;25687;49.976;8.240;2023-12-20T12:17:10;100190.00;;;7.26;100.00
804;BME280;25687;49.976;8.240;2023-12-20T12:19:35;100193.28;;;7.30;100.00
804;BME280;25687;49.976;8.240;2023-12-20T12:22:08;100185.13;;;7.20;100.00
804;BME280;25687;49.976;8.240;2023-12-20T12:24:36;100189.28;;;7.00;100.00
804;BME280;25687;49.976;8.240;2023-12-20T12:27:02;100193.34;;;7.06;100.00
804;BME280;25687;49.976;8.240;2023-12-20T12:29:28;100183.91;;;6.84;100.00
804;BME280;25687;49.976;8.240;2023-12-20T12:31:54;100180.78;;;6.77;100.00
804;BME280;25687;49.976;8.240;2023-12-20T12:34:19;100174.72;;;6.80;100.00
804;BME280;25687;49.976;8.240;2023-12-20T12:36:45;100175.28;;;6.87;100.00
804;BME280;25687;49.976;8.240;2023-12-20T12:39:18;100167.53;;;6.90;100.00
804;BME280;25687;49.976;8.240;2023-12-20T12:41:43;100166.91;;;7.05;100.00
804;BME280;25687;49.976;8.240;2023-12-20T12:44:08;100168.72;;;7.03;100.00
804;BME280;25687;49.976;8.240;2023-12-20T12:46:34;100170.31;;;7.06;100.00
804;BME280;25687;49.976;8.240;2023-12-20T12:48:59;100160.50;;;7.17;100.00
804;BME280;25687;49.976;8.240;2023-12-20T12:51:25;100157.63;;;7.25;100.00
804;BME280;25687;49.976;8.240;2023-12-20T12:53:50;100147.25;;;7.07;100.00
804;BME280;25687;49.976;8.240;2023-12-20T12:56:15;100132.53;;;7.13;100.00
804;BME280;25687;49.976;8.240;2023-12-20T12:58:41;100131.25;;;7.02;100.00
804;BME280;25687;49.976;8.240;2023-12-20T13:01:06;100129.75;;;6.97;100.00
804;BME280;25687;49.976;8.240;2023-12-20T13:03:32;100144.53;;;6.88;100.00
804;BME280;25687;49.976;8.240;2023-12-20T13:05:57;100139.81;;;7.01;100.00
804;BME280;25687;49.976;8.240;2023-12-20T13:08:22;100133.25;;;7.16;100.00